Terminal Aerodrome Forecast
Issued by NWS

Home | Current Version | Previous Version | Text Only | Print | Product List | Glossary On
Versions: 1 2 3 4 5 6 7 8 9 10 11 12 13 14 15 16 17
620
FTUS46 KSGX 180520
TAFSNA
TAF
KSNA 180520Z 1806/1906 VRB05KT P6SM FEW015
     FM181000 VRB03KT P6SM BKN010
     FM181600 VRB05KT P6SM SCT012 BKN200
     FM182100 22008KT P6SM FEW015 BKN040
     FM190100 VRB05KT P6SM BKN035
     FM190400 VRB04KT P6SM VCSH BKN025=

USA.gov is the U.S. government's official web portal to all federal, state and local government web resources and services.